Disclaimer

Please do not use the information listed here in-flight or in-navigation, as they are not provided to us by the airports but are provided by volunteers, so they might be outdated.

Search


Regions


Airport information page

Radio informations:
Aerodrome flight information system (AFIS) - 123.0 MHz

Airport informations:
Latitude: 65° 35' 25.00" N
Longitude: 019° 16' 55.00" E
Elevation: 1245 feet - 379 meters
Operating hours: Remarks
Operating agency: Civil government, landing fees and diplomatic clearance may be required
Timezone: UTC+1(+2DT) - Last Sunday in March to last Sunday in October
Fuel: N/A

Runway information:
12/30 - 8201 x 148 feet< - >2500 x 45 meters

Recent METARs:
ESNX 151150Z 00000KT 0500 R30/0900N FZFG NSC M25/M28 Q1029
ESNX 151220Z AUTO 00000KT 0650 R30/1300U FZFG VV001 M25/M28 Q1029
ESNX 151250Z AUTO 00000KT 1000 R30/P2000N OVC002/// M25/M28 Q1029

Airport on the map: